createdAt,value
2018-12-12T00:13:01.668Z,91.51
2018-12-12T00:28:01.721Z,91.68
2018-12-12T00:43:01.543Z,91.77
2018-12-12T00:58:01.563Z,91.94
2018-12-12T01:08:01.620Z,91.80
2018-12-12T01:23:01.486Z,92.02
2018-12-12T01:38:01.630Z,91.71
2018-12-12T01:43:01.505Z,91.71
2018-12-12T01:58:01.621Z,91.45
2018-12-12T02:13:01.682Z,91.23
2018-12-12T02:28:01.487Z,91.71
2018-12-12T02:43:01.502Z,91.57
2018-12-12T02:58:01.605Z,89.90
2018-12-12T03:13:01.576Z,89.46
2018-12-12T03:29:01.585Z,89.39
2018-12-12T03:44:01.540Z,89.33
2018-12-12T03:59:01.539Z,89.62
2018-12-12T04:15:01.565Z,89.82
2018-12-12T04:30:01.620Z,89.40
2018-12-12T04:45:02.639Z,89.74
2018-12-12T04:55:01.576Z,90.88
2018-12-12T05:00:01.636Z,90.88
2018-12-12T05:15:01.666Z,90.98
2018-12-12T05:25:01.609Z,91.11
2018-12-12T05:30:01.666Z,91.11
2018-12-12T05:45:01.618Z,92.25
2018-12-12T06:00:01.848Z,92.33
2018-12-12T06:15:01.718Z,92.33
2018-12-12T06:30:01.583Z,92.33
2018-12-12T06:45:01.378Z,92.95
2018-12-12T07:00:01.519Z,92.53
2018-12-12T07:15:01.474Z,92.55
2018-12-12T07:30:01.527Z,92.85
2018-12-12T07:45:01.520Z,91.44
2018-12-12T08:00:01.400Z,91.48
2018-12-12T08:05:01.531Z,90.69
2018-12-12T08:15:01.523Z,90.81
2018-12-12T08:30:06.789Z,91.88
2018-12-12T08:45:06.466Z,90.42
2018-12-12T09:00:06.533Z,89.65
2018-12-12T09:16:01.534Z,88.89
2018-12-12T09:21:01.580Z,88.89
2018-12-12T09:26:01.565Z,90.71
2018-12-12T09:31:01.546Z,90.71
2018-12-12T09:36:01.525Z,91.95
2018-12-12T09:41:06.556Z,91.95
2018-12-12T09:46:01.510Z,93.11
2018-12-12T09:51:07.933Z,93.11
2018-12-12T10:06:01.588Z,92.00
2018-12-12T10:12:01.546Z,92.00
2018-12-12T10:17:06.524Z,90.87
2018-12-12T10:22:06.483Z,90.87
2018-12-12T10:27:06.522Z,91.12
2018-12-12T10:32:06.554Z,91.12
2018-12-12T10:47:06.568Z,88.63
2018-12-12T11:02:01.649Z,88.69
2018-12-12T11:12:01.477Z,88.57
2018-12-12T11:17:01.407Z,88.06
2018-12-12T11:22:01.763Z,88.06
2018-12-12T11:27:01.618Z,88.15
2018-12-12T11:32:01.707Z,88.15
2018-12-12T11:47:01.659Z,87.77
2018-12-12T11:57:01.623Z,87.55
2018-12-12T12:07:02.387Z,87.07
2018-12-12T12:17:01.556Z,85.52
2018-12-12T12:22:01.578Z,85.52
2018-12-12T12:27:01.748Z,83.10
2018-12-12T12:42:01.736Z,83.47
2018-12-12T12:47:01.654Z,85.09
2018-12-12T12:52:01.713Z,85.09
2018-12-12T12:57:01.650Z,86.27
2018-12-12T13:02:01.682Z,86.27
2018-12-12T13:07:01.708Z,86.67
2018-12-12T13:12:02.279Z,86.67
2018-12-12T13:17:01.676Z,86.24
2018-12-12T13:27:01.716Z,86.04
2018-12-12T13:42:01.797Z,86.58
2018-12-12T13:52:01.651Z,86.35
2018-12-12T14:07:01.723Z,86.13
2018-12-12T14:12:01.733Z,86.13
2018-12-12T14:27:01.682Z,87.49
2018-12-12T14:42:01.676Z,87.66
2018-12-12T14:57:01.652Z,87.92
2018-12-12T15:12:01.697Z,89.02
2018-12-12T15:17:01.697Z,88.78
2018-12-12T15:32:01.724Z,87.06
2018-12-12T15:37:01.612Z,84.64
2018-12-12T15:52:01.663Z,84.18
2018-12-12T16:07:01.681Z,86.14
2018-12-12T16:22:01.605Z,85.87
2018-12-12T16:32:01.550Z,84.80
2018-12-12T16:47:01.668Z,86.30
2018-12-12T17:02:01.635Z,86.61
2018-12-12T17:17:01.492Z,87.25
2018-12-12T17:22:01.483Z,87.25
2018-12-12T17:37:01.605Z,89.36
2018-12-12T17:52:01.606Z,88.77
2018-12-12T18:08:01.584Z,82.77
2018-12-12T18:23:01.567Z,87.75
2018-12-12T18:38:01.579Z,91.47
2018-12-12T18:48:01.569Z,91.35
2018-12-12T19:03:01.678Z,91.10
2018-12-12T19:19:01.586Z,93.66
2018-12-12T19:34:01.664Z,95.02
2018-12-12T19:49:01.726Z,95.42
2018-12-12T19:54:01.663Z,96.23
2018-12-12T20:09:01.755Z,96.30
2018-12-12T20:19:02.503Z,96.47
2018-12-12T20:29:01.599Z,95.67
2018-12-12T20:44:01.799Z,95.08
2018-12-12T20:59:01.598Z,94.07
2018-12-12T21:14:02.727Z,91.07
2018-12-12T21:29:01.674Z,90.06
2018-12-12T21:44:01.634Z,89.09
2018-12-12T21:54:01.600Z,88.75
2018-12-12T22:09:01.634Z,89.36
2018-12-12T22:24:01.578Z,89.97
2018-12-12T22:35:01.593Z,89.82
2018-12-12T22:45:01.510Z,89.12
2018-12-12T23:00:01.567Z,88.54
2018-12-12T23:15:01.728Z,87.17
2018-12-12T23:31:02.029Z,86.28
2018-12-12T23:46:01.630Z,85.58
